Orel 5 — EMFH — position and weather

sailwx.info

Track history (hours):
 
Tides and Currents Weather Stations Pressure Air Temp Water Temp Dewpoint Dewpoint Depression Visibility Wind Speed Wind Dir Waves Ship Positions

Orel 5

Last reported at 2014-Aug-28 22:27 UTC. Time now 2014-Sep-03 05:06 UTC.
Position N 40°55' E 028°46'.

Length 108 m; draft 3.3 m.

Type: Cargo ship. MMSI: 272059000.

Date/timePositionNaut miles runAvg speedWind from/ knotsBaromVisibWave heightAir tempDewpointWater temp
2014-Aug-28 22:27N 40°55' E 028°46'8 8.5
2014-Aug-28 21:33N 40°57' E 028°56'1 1.4
2014-Aug-28 20:32N 40°59' E 028°56'0 0.0
2014-Aug-28 19:22N 40°59' E 028°56'2 2.6
2014-Aug-28 18:33N 40°59' E 028°59'10 8.5
2014-Aug-28 17:22N 41°09' E 029°04'18 1.4
2014-Aug-28 04:32N 41°26' E 029°03'  
2014-Aug-25 20:31N 46°35' E 031°32'8 7.7
2014-Aug-25 19:32N 46°36' E 031°43'7 7.4
2014-Aug-25 18:33N 46°35' E 031°53'7 7.1
2014-Aug-25 17:33N 46°32' E 032°03'143 4.6
2014-Aug-24 10:25N 47°40' E 035°07'6 7.0
2014-Aug-24 09:33N 47°46' E 035°09'3 2.7
2014-Aug-24 08:33N 47°49' E 035°09'4 3.8
2014-Aug-24 07:33N 47°51' E 035°05'1 0.6
2014-Aug-24 06:33N 47°52' E 035°05'2 2.2
2014-Aug-24 05:33N 47°54' E 035°07'0 0.1
2014-Aug-24 04:33N 47°54' E 035°07'  
Track history (hours):
 
Tides and Currents Weather Stations Pressure Air Temp Water Temp Dewpoint Dewpoint Depression Visibility Wind Speed Wind Dir Waves Ship Positions

Orel 5

Last reported at 2014-Aug-28 22:27 UTC. Time now 2014-Sep-03 05:06 UTC.
Position N 40°55' E 028°46'.

Length 108 m; draft 3.3 m.

Type: Cargo ship. MMSI: 272059000.

Date/timePositionNaut miles runAvg speedWind from/ knotsBaromVisibWave heightAir tempDewpointWater temp
2014-Aug-28 22:27N 40°55' E 028°46'8 8.5
2014-Aug-28 21:33N 40°57' E 028°56'1 1.4
2014-Aug-28 20:32N 40°59' E 028°56'0 0.0
2014-Aug-28 19:22N 40°59' E 028°56'2 2.6
2014-Aug-28 18:33N 40°59' E 028°59'10 8.5
2014-Aug-28 17:22N 41°09' E 029°04'18 1.4
2014-Aug-28 04:32N 41°26' E 029°03'  
2014-Aug-25 20:31N 46°35' E 031°32'8 7.7
2014-Aug-25 19:32N 46°36' E 031°43'7 7.4
2014-Aug-25 18:33N 46°35' E 031°53'7 7.1
2014-Aug-25 17:33N 46°32' E 032°03'143 4.6
2014-Aug-24 10:25N 47°40' E 035°07'6 7.0
2014-Aug-24 09:33N 47°46' E 035°09'3 2.7
2014-Aug-24 08:33N 47°49' E 035°09'4 3.8
2014-Aug-24 07:33N 47°51' E 035°05'1 0.6
2014-Aug-24 06:33N 47°52' E 035°05'2 2.2
2014-Aug-24 05:33N 47°54' E 035°07'0 0.1
2014-Aug-24 04:33N 47°54' E 035°07'  

Dump ship's entire track history